createdAt,value
2022-12-24T00:00:45.220Z,47.67
2022-12-24T00:03:30.844Z,43.75
2022-12-24T00:06:22.528Z,51.10
2022-12-24T00:09:08.050Z,47.33
2022-12-24T00:11:57.510Z,58.83
2022-12-24T00:14:43.014Z,56.13
2022-12-24T00:17:28.267Z,53.47
2022-12-24T00:20:13.934Z,45.85
2022-12-24T00:22:59.230Z,49.63
2022-12-24T00:25:45.562Z,44.45
2022-12-24T00:28:31.175Z,64.43
2022-12-24T00:31:19.181Z,52.92
2022-12-24T00:34:06.124Z,58.95
2022-12-24T00:36:52.313Z,46.15
2022-12-24T00:39:37.701Z,47.92
2022-12-24T00:42:23.242Z,61.08
2022-12-24T00:45:15.226Z,54.42
2022-12-24T00:48:00.707Z,61.83
2022-12-24T00:50:46.255Z,54.55
2022-12-24T00:53:32.076Z,53.45
2022-12-24T00:56:17.775Z,52.58
2022-12-24T00:59:03.584Z,48.35
2022-12-24T01:01:48.982Z,65.28
2022-12-24T01:04:52.847Z,58.75
2022-12-24T01:07:43.727Z,51.60
2022-12-24T01:10:29.925Z,54.13
2022-12-24T01:13:15.724Z,51.75
2022-12-24T01:16:01.812Z,66.38
2022-12-24T01:18:47.082Z,62.72
2022-12-24T01:21:32.627Z,61.25
2022-12-24T01:24:18.087Z,55.42
2022-12-24T01:27:03.640Z,57.90
2022-12-24T01:29:48.996Z,52.90
2022-12-24T01:32:34.755Z,51.88
2022-12-24T01:35:20.314Z,59.15
2022-12-24T01:38:05.755Z,51.72
2022-12-24T01:41:09.825Z,61.00
2022-12-24T01:43:55.488Z,48.05
2022-12-24T01:46:41.016Z,57.17
2022-12-24T01:49:26.783Z,45.65
2022-12-24T01:52:17.239Z,52.20
2022-12-24T01:55:10.651Z,49.03
2022-12-24T01:57:59.565Z,50.97
2022-12-24T02:00:45.284Z,45.38
2022-12-24T02:03:31.027Z,48.58
2022-12-24T02:06:17.819Z,54.85
2022-12-24T02:09:03.368Z,45.95
2022-12-24T02:11:49.705Z,48.40
2022-12-24T02:14:39.336Z,47.05
2022-12-24T02:17:54.933Z,57.15
2022-12-24T02:21:10.471Z,47.33
2022-12-24T02:23:55.764Z,36.45
2022-12-24T02:27:04.990Z,44.35
2022-12-24T02:30:16.904Z,47.55
2022-12-24T02:33:40.609Z,40.60
2022-12-24T02:36:42.590Z,46.88
2022-12-24T02:39:48.204Z,45.15
2022-12-24T02:42:41.286Z,44.60
2022-12-24T02:45:31.147Z,49.95
2022-12-24T02:48:18.240Z,42.60
2022-12-24T02:51:07.348Z,42.00
2022-12-24T02:53:53.091Z,55.67
2022-12-24T02:56:53.553Z,51.80
2022-12-24T02:59:51.618Z,43.03
2022-12-24T03:02:47.703Z,61.10
2022-12-24T03:05:46.594Z,51.05
2022-12-24T03:08:45.479Z,62.17
2022-12-24T03:11:31.294Z,60.90
2022-12-24T03:14:17.563Z,60.05
2022-12-24T03:17:04.082Z,74.13
2022-12-24T03:19:50.252Z,68.40
2022-12-24T03:22:36.416Z,65.30
2022-12-24T03:25:25.246Z,62.13
2022-12-24T03:28:16.417Z,66.10
2022-12-24T03:31:04.766Z,70.97
2022-12-24T03:33:51.315Z,66.85
2022-12-24T03:36:37.600Z,58.25
2022-12-24T03:39:23.851Z,64.53
2022-12-24T03:42:09.200Z,63.35
2022-12-24T03:44:55.056Z,68.38
2022-12-24T03:47:40.489Z,69.45
2022-12-24T03:50:26.079Z,54.33
2022-12-24T03:53:11.377Z,66.15
2022-12-24T03:55:57.152Z,73.30
2022-12-24T03:58:51.765Z,63.73
2022-12-24T04:01:37.241Z,53.60
2022-12-24T04:04:22.692Z,54.67
2022-12-24T04:07:08.488Z,54.13
2022-12-24T04:09:54.123Z,64.95
2022-12-24T04:12:39.853Z,56.92
2022-12-24T04:15:25.491Z,65.93
2022-12-24T04:18:10.946Z,61.28
2022-12-24T04:20:57.554Z,50.88
2022-12-24T04:23:45.680Z,50.40
2022-12-24T04:26:30.834Z,56.10
2022-12-24T04:29:16.535Z,50.25
2022-12-24T04:32:02.003Z,49.05
2022-12-24T04:34:47.176Z,58.92
2022-12-24T04:37:34.061Z,53.60
2022-12-24T04:40:25.383Z,54.60
2022-12-24T04:43:10.991Z,51.53
2022-12-24T04:45:57.255Z,48.55
2022-12-24T04:48:42.988Z,50.33
2022-12-24T04:51:29.575Z,46.78
2022-12-24T04:54:15.515Z,51.45
2022-12-24T04:57:01.101Z,38.40
2022-12-24T04:59:46.432Z,51.35
2022-12-24T05:02:32.017Z,49.97
2022-12-24T05:05:17.539Z,64.30
2022-12-24T05:08:02.755Z,55.08
2022-12-24T05:11:00.899Z,62.65
2022-12-24T05:13:47.825Z,59.20
2022-12-24T05:16:33.836Z,69.78
2022-12-24T05:19:20.326Z,63.28
2022-12-24T05:22:24.383Z,68.55
2022-12-24T05:25:30.086Z,83.82
2022-12-24T05:28:15.885Z,88.22
2022-12-24T05:31:01.765Z,77.22
2022-12-24T05:33:47.622Z,62.50
2022-12-24T05:36:33.172Z,72.45
2022-12-24T05:39:18.948Z,73.03
2022-12-24T05:42:07.314Z,65.55
2022-12-24T05:44:52.700Z,76.93
2022-12-24T05:47:43.208Z,69.85
2022-12-24T05:50:28.951Z,70.07
2022-12-24T05:53:23.718Z,64.97
2022-12-24T05:56:14.957Z,76.25
2022-12-24T05:59:00.370Z,53.58
2022-12-24T06:01:48.001Z,74.18
2022-12-24T06:04:35.135Z,70.97
2022-12-24T06:07:21.683Z,61.78
2022-12-24T06:10:08.292Z,61.47
2022-12-24T06:12:53.508Z,74.95
2022-12-24T06:15:42.082Z,68.47
2022-12-24T06:18:30.063Z,70.22
2022-12-24T06:21:16.088Z,89.78
2022-12-24T06:24:01.832Z,83.32
2022-12-24T06:26:47.464Z,72.97
2022-12-24T06:29:32.871Z,78.65
2022-12-24T06:32:18.985Z,80.95
2022-12-24T06:35:07.324Z,98.25
2022-12-24T06:37:52.472Z,78.53
2022-12-24T06:40:39.458Z,77.75
2022-12-24T06:43:28.342Z,89.90
2022-12-24T06:46:17.411Z,71.57
2022-12-24T06:49:02.876Z,82.90
2022-12-24T06:51:48.145Z,83.90
2022-12-24T06:54:34.633Z,80.25
2022-12-24T06:57:20.313Z,77.53
2022-12-24T07:00:07.793Z,67.40
2022-12-24T07:02:53.442Z,84.60
2022-12-24T07:05:43.148Z,83.90
2022-12-24T07:08:28.849Z,83.82
2022-12-24T07:11:14.297Z,86.80
2022-12-24T07:13:59.720Z,72.28
2022-12-24T07:16:45.926Z,74.82
2022-12-24T07:19:31.425Z,82.28
2022-12-24T07:22:17.012Z,79.53
2022-12-24T07:25:02.946Z,82.00
2022-12-24T07:27:48.686Z,73.13
2022-12-24T07:30:36.874Z,80.25
2022-12-24T07:33:22.117Z,84.35
2022-12-24T07:36:11.224Z,81.57
2022-12-24T07:38:57.419Z,76.45
2022-12-24T07:41:43.390Z,69.20
2022-12-24T07:44:30.883Z,76.75
2022-12-24T07:47:16.689Z,70.32
2022-12-24T07:50:03.487Z,84.63
2022-12-24T07:52:51.921Z,70.15
2022-12-24T07:55:37.306Z,82.55
2022-12-24T07:58:23.303Z,71.10
2022-12-24T08:01:09.747Z,63.55
2022-12-24T08:03:55.218Z,77.28
2022-12-24T08:06:40.790Z,67.63
2022-12-24T08:09:32.326Z,69.15
2022-12-24T08:12:21.877Z,67.40
2022-12-24T08:15:08.004Z,67.68
2022-12-24T08:17:55.861Z,71.05
2022-12-24T08:20:41.625Z,81.45
2022-12-24T08:23:27.193Z,73.75
2022-12-24T08:26:12.883Z,68.97
2022-12-24T08:28:58.358Z,81.35
2022-12-24T08:31:46.801Z,68.70
2022-12-24T08:34:34.729Z,78.85
2022-12-24T08:37:20.155Z,86.68
2022-12-24T08:40:06.480Z,68.47
2022-12-24T08:42:54.002Z,65.78
2022-12-24T08:45:41.145Z,84.50
2022-12-24T08:48:26.721Z,81.63
2022-12-24T08:51:12.614Z,77.15
2022-12-24T08:53:58.167Z,62.50
2022-12-24T08:56:44.777Z,75.10
2022-12-24T08:59:30.345Z,58.05
2022-12-24T09:02:19.280Z,68.05
2022-12-24T09:05:07.999Z,52.53
2022-12-24T09:07:53.380Z,65.45
2022-12-24T09:10:39.382Z,68.85
2022-12-24T09:13:24.896Z,59.97
2022-12-24T09:16:11.178Z,54.05
2022-12-24T09:18:58.104Z,56.90
2022-12-24T09:21:50.017Z,56.55
2022-12-24T09:24:36.342Z,41.78
2022-12-24T09:27:22.391Z,64.28
2022-12-24T09:30:11.485Z,75.55
2022-12-24T09:32:57.015Z,55.65
2022-12-24T09:35:42.553Z,60.75
2022-12-24T09:38:28.593Z,53.53
2022-12-24T09:41:31.806Z,51.40
2022-12-24T09:45:10.448Z,63.38
2022-12-24T09:48:09.813Z,71.00
2022-12-24T09:51:10.934Z,53.45
2022-12-24T09:54:27.104Z,54.45
2022-12-24T09:57:23.476Z,53.42
2022-12-24T10:00:28.892Z,52.00
2022-12-24T10:03:21.347Z,49.30
2022-12-24T10:06:14.731Z,43.70
2022-12-24T10:09:36.568Z,48.90
2022-12-24T10:13:05.369Z,54.83
2022-12-24T10:16:00.098Z,56.00
2022-12-24T10:18:49.325Z,57.85
2022-12-24T10:21:47.386Z,54.72
2022-12-24T10:24:46.369Z,52.05
2022-12-24T10:27:39.913Z,51.53
2022-12-24T10:30:25.505Z,36.97
2022-12-24T10:33:20.041Z,51.42
2022-12-24T10:36:12.210Z,37.70
2022-12-24T10:38:58.611Z,32.58
2022-12-24T10:41:45.788Z,41.90
2022-12-24T10:44:33.424Z,36.83
2022-12-24T10:47:24.764Z,40.63
2022-12-24T10:50:19.441Z,40.95
2022-12-24T10:53:23.746Z,44.30
2022-12-24T10:56:14.173Z,37.53
2022-12-24T10:58:59.543Z,46.67
2022-12-24T11:01:47.880Z,34.90
2022-12-24T11:04:45.666Z,54.30
2022-12-24T11:07:33.011Z,45.70
2022-12-24T11:10:24.224Z,38.70
2022-12-24T11:13:39.908Z,41.90
2022-12-24T11:16:32.642Z,34.40
2022-12-24T11:19:24.262Z,40.47
2022-12-24T11:22:31.239Z,45.47
2022-12-24T11:25:22.108Z,42.78
2022-12-24T11:28:18.416Z,36.42
2022-12-24T11:31:07.188Z,48.28
2022-12-24T11:33:56.002Z,36.60
2022-12-24T11:36:41.662Z,45.67
2022-12-24T11:39:28.100Z,46.20
2022-12-24T11:42:35.502Z,44.00
2022-12-24T11:45:27.622Z,40.17
2022-12-24T11:48:29.322Z,36.55
2022-12-24T11:51:27.580Z,37.40
2022-12-24T11:54:26.663Z,39.83
2022-12-24T11:57:18.900Z,26.20
2022-12-24T12:00:05.354Z,39.67
2022-12-24T12:02:52.029Z,40.97
2022-12-24T12:05:39.702Z,40.97
2022-12-24T12:08:28.003Z,39.42
2022-12-24T12:11:14.563Z,44.20
2022-12-24T12:14:05.672Z,34.30
2022-12-24T12:17:24.415Z,36.13
2022-12-24T12:20:13.082Z,37.97
2022-12-24T12:23:19.881Z,45.88
2022-12-24T12:26:15.054Z,33.15
2022-12-24T12:29:20.535Z,32.97
2022-12-24T12:32:28.537Z,29.98
2022-12-24T12:35:35.454Z,37.08
2022-12-24T12:38:30.955Z,34.00
2022-12-24T12:44:28.480Z,36.95
2022-12-24T12:47:27.512Z,32.85
2022-12-24T12:50:23.816Z,28.10
2022-12-24T12:53:23.926Z,35.70
2022-12-24T12:56:28.140Z,32.60
2022-12-24T12:59:35.656Z,40.20
2022-12-24T13:02:38.090Z,40.72
2022-12-24T13:05:57.948Z,30.10
2022-12-24T13:09:08.536Z,31.50
2022-12-24T13:11:59.725Z,34.92
2022-12-24T13:15:17.344Z,28.80
2022-12-24T13:18:27.503Z,36.55
2022-12-24T13:21:22.909Z,26.70
2022-12-24T13:24:20.051Z,34.30
2022-12-24T13:27:26.706Z,36.83
2022-12-24T13:30:36.223Z,29.15
2022-12-24T13:33:48.158Z,30.17
2022-12-24T13:37:06.135Z,36.78
2022-12-24T13:40:06.759Z,27.63
2022-12-24T13:43:08.134Z,35.03
2022-12-24T13:45:53.819Z,34.40
2022-12-24T13:48:39.334Z,32.00
2022-12-24T13:51:26.345Z,24.35
2022-12-24T13:54:13.896Z,33.00
2022-12-24T13:57:00.619Z,35.03
2022-12-24T13:59:47.282Z,37.03
2022-12-24T14:02:39.212Z,30.48
2022-12-24T14:05:39.831Z,33.22
2022-12-24T14:08:25.524Z,32.13
2022-12-24T14:11:18.438Z,33.45
2022-12-24T14:14:03.817Z,32.80
2022-12-24T14:16:51.586Z,30.25
2022-12-24T14:19:46.852Z,38.25
2022-12-24T14:25:24.237Z,34.92
2022-12-24T14:28:22.003Z,36.10
2022-12-24T14:31:18.122Z,36.60
2022-12-24T14:34:13.847Z,33.72
2022-12-24T14:37:03.521Z,35.17
2022-12-24T14:39:56.772Z,34.17
2022-12-24T14:43:19.219Z,34.25
2022-12-24T14:46:40.396Z,36.08
2022-12-24T14:50:25.369Z,40.08
2022-12-24T14:53:39.637Z,40.83
2022-12-24T14:56:25.709Z,45.28
2022-12-24T14:59:20.680Z,38.30
2022-12-24T15:05:30.112Z,47.63
2022-12-24T15:08:19.510Z,50.55
2022-12-24T15:11:08.921Z,48.28
2022-12-24T15:13:57.344Z,42.53
2022-12-24T15:16:54.747Z,40.72
2022-12-24T15:19:43.508Z,47.13
2022-12-24T15:22:32.133Z,50.55
2022-12-24T15:25:31.959Z,54.38
2022-12-24T15:28:23.396Z,45.75
2022-12-24T15:31:13.513Z,41.70
2022-12-24T15:33:59.628Z,45.50
2022-12-24T15:36:45.393Z,73.82
2022-12-24T15:39:31.070Z,56.90
2022-12-24T15:42:19.623Z,59.60
2022-12-24T15:45:13.604Z,52.45
2022-12-24T15:48:10.163Z,61.17
2022-12-24T15:51:02.608Z,61.58
2022-12-24T15:53:56.943Z,63.30
2022-12-24T15:56:50.548Z,69.15
2022-12-24T15:59:36.562Z,67.88
2022-12-24T16:02:38.334Z,70.63
2022-12-24T16:05:38.752Z,59.38
2022-12-24T16:08:25.659Z,69.45
2022-12-24T16:11:19.054Z,65.22
2022-12-24T16:14:23.130Z,72.13
2022-12-24T16:17:32.220Z,68.55
2022-12-24T16:20:21.802Z,77.53
2022-12-24T16:23:20.359Z,84.90
2022-12-24T16:26:06.078Z,71.32
2022-12-24T16:28:51.287Z,84.45
2022-12-24T16:31:43.477Z,76.28
2022-12-24T16:34:34.528Z,91.60
2022-12-24T16:37:19.950Z,76.97
2022-12-24T16:40:08.360Z,92.80
2022-12-24T16:43:16.028Z,68.15
2022-12-24T16:46:07.886Z,80.15
2022-12-24T16:48:53.472Z,81.10
2022-12-24T16:51:39.065Z,73.90
2022-12-24T16:54:24.572Z,75.68
2022-12-24T16:57:13.254Z,77.45
2022-12-24T16:59:58.872Z,86.40
2022-12-24T17:02:45.057Z,84.70
2022-12-24T17:05:30.769Z,80.53
2022-12-24T17:08:17.390Z,77.20
2022-12-24T17:11:02.884Z,92.53
2022-12-24T17:13:48.283Z,81.20
2022-12-24T17:16:34.074Z,72.50
2022-12-24T17:19:19.475Z,103.82
2022-12-24T17:22:05.067Z,100.68
2022-12-24T17:24:50.679Z,88.18
2022-12-24T17:27:36.506Z,83.00
2022-12-24T17:30:22.353Z,101.68
2022-12-24T17:33:14.153Z,103.97
2022-12-24T17:36:00.733Z,85.72
2022-12-24T17:38:49.592Z,85.30
2022-12-24T17:41:37.961Z,82.13
2022-12-24T17:44:23.634Z,80.80
2022-12-24T17:47:09.203Z,88.88
2022-12-24T17:49:54.855Z,94.55
2022-12-24T17:52:40.377Z,81.20
2022-12-24T17:55:25.841Z,76.40
2022-12-24T17:58:12.047Z,89.78
2022-12-24T18:01:01.328Z,81.07
2022-12-24T18:03:48.593Z,77.63
2022-12-24T18:06:37.236Z,88.32
2022-12-24T18:09:22.723Z,90.47
2022-12-24T18:12:07.971Z,87.68
2022-12-24T18:14:54.515Z,90.32
2022-12-24T18:17:42.648Z,82.13
2022-12-24T18:20:31.229Z,94.30
2022-12-24T18:23:16.401Z,88.13
2022-12-24T18:26:05.864Z,84.50
2022-12-24T18:28:53.836Z,96.22
2022-12-24T18:31:39.204Z,93.50
2022-12-24T18:34:24.565Z,98.18
2022-12-24T18:37:10.495Z,106.03
2022-12-24T18:39:57.788Z,91.60
2022-12-24T18:42:43.654Z,100.63
2022-12-24T18:45:31.487Z,102.80
2022-12-24T18:48:18.121Z,110.03
2022-12-24T18:51:06.704Z,107.60
2022-12-24T18:53:52.175Z,98.22
2022-12-24T18:56:37.498Z,86.97
2022-12-24T18:59:22.804Z,84.13
2022-12-24T19:02:10.283Z,100.93
2022-12-24T19:04:55.757Z,100.15
2022-12-24T19:07:41.744Z,88.60
2022-12-24T19:10:27.352Z,112.78
2022-12-24T19:13:12.848Z,110.47
2022-12-24T19:15:58.415Z,97.97
2022-12-24T19:18:43.961Z,78.82
2022-12-24T19:21:29.778Z,91.10
2022-12-24T19:24:15.414Z,92.93
2022-12-24T19:27:04.886Z,95.05
2022-12-24T19:29:50.369Z,82.07
2022-12-24T19:32:39.181Z,81.25
2022-12-24T19:35:24.393Z,94.32
2022-12-24T19:38:10.842Z,107.63
2022-12-24T19:40:56.275Z,103.28
2022-12-24T19:43:47.550Z,96.97
2022-12-24T19:46:34.820Z,92.97
2022-12-24T19:49:20.664Z,103.75
2022-12-24T19:52:08.848Z,90.55
2022-12-24T19:54:54.386Z,92.45
2022-12-24T19:57:39.858Z,100.63
2022-12-24T20:00:25.037Z,114.22
2022-12-24T20:03:10.720Z,103.43
2022-12-24T20:05:56.214Z,90.75
2022-12-24T20:08:42.462Z,89.95
2022-12-24T20:11:28.892Z,90.43
2022-12-24T20:14:14.408Z,102.47
2022-12-24T20:17:00.203Z,98.82
2022-12-24T20:19:45.893Z,103.25
2022-12-24T20:22:31.276Z,100.20
2022-12-24T20:25:16.895Z,87.90
2022-12-24T20:28:02.701Z,93.15
2022-12-24T20:30:51.003Z,116.55
2022-12-24T20:33:36.405Z,102.40
2022-12-24T20:36:22.952Z,94.68
2022-12-24T20:39:08.571Z,92.20
2022-12-24T20:41:54.198Z,116.60
2022-12-24T20:44:39.923Z,101.63
2022-12-24T20:47:25.471Z,106.38
2022-12-24T20:50:11.245Z,110.53
2022-12-24T20:52:56.558Z,97.97
2022-12-24T20:55:44.032Z,107.22
2022-12-24T20:58:29.519Z,112.18
2022-12-24T21:01:24.326Z,90.82
2022-12-24T21:04:11.953Z,92.25
2022-12-24T21:06:57.408Z,96.20
2022-12-24T21:09:43.111Z,109.75
2022-12-24T21:12:48.519Z,97.30
2022-12-24T21:15:37.633Z,98.35
2022-12-24T21:18:22.921Z,92.28
2022-12-24T21:21:08.780Z,114.03
2022-12-24T21:23:55.259Z,109.38
2022-12-24T21:26:40.769Z,104.07
2022-12-24T21:29:27.284Z,104.05
2022-12-24T21:32:15.580Z,98.35
2022-12-24T21:35:03.053Z,91.30
2022-12-24T21:37:48.550Z,112.93
2022-12-24T21:40:34.746Z,103.50
2022-12-24T21:43:20.076Z,93.18
2022-12-24T21:46:13.507Z,107.85
2022-12-24T21:49:17.651Z,107.05
2022-12-24T21:52:03.616Z,86.75
2022-12-24T21:54:50.274Z,96.03
2022-12-24T21:57:54.340Z,101.55
2022-12-24T22:00:39.983Z,112.47
2022-12-24T22:03:28.359Z,100.28
2022-12-24T22:06:33.751Z,108.10
2022-12-24T22:09:38.368Z,113.60
2022-12-24T22:12:24.630Z,109.90
2022-12-24T22:15:10.529Z,107.00
2022-12-24T22:17:56.178Z,120.97
2022-12-24T22:20:43.185Z,83.70
2022-12-24T22:23:28.783Z,89.05
2022-12-24T22:26:16.942Z,82.32
2022-12-24T22:29:07.848Z,103.65
2022-12-24T22:31:53.051Z,88.13
2022-12-24T22:34:39.063Z,97.80
2022-12-24T22:37:24.615Z,94.10
2022-12-24T22:40:10.942Z,87.30
2022-12-24T22:42:58.577Z,86.72
2022-12-24T22:45:44.395Z,89.65
2022-12-24T22:48:29.855Z,74.43
2022-12-24T22:51:20.388Z,84.70
2022-12-24T22:54:08.470Z,86.57
2022-12-24T22:56:54.094Z,81.82
2022-12-24T22:59:42.083Z,98.82
2022-12-24T23:02:29.177Z,92.03
2022-12-24T23:05:15.807Z,92.03
2022-12-24T23:08:01.247Z,87.07
2022-12-24T23:10:46.346Z,87.28
2022-12-24T23:13:56.100Z,84.78
2022-12-24T23:16:42.313Z,92.72
2022-12-24T23:19:27.808Z,84.10
2022-12-24T23:22:13.381Z,79.88
2022-12-24T23:24:58.841Z,90.55
2022-12-24T23:27:44.013Z,97.82
2022-12-24T23:30:33.226Z,80.57
2022-12-24T23:33:18.688Z,93.18
2022-12-24T23:36:06.153Z,89.82
2022-12-24T23:38:53.624Z,73.82
2022-12-24T23:41:39.105Z,97.90
2022-12-24T23:44:31.726Z,83.72
2022-12-24T23:47:18.761Z,76.20
2022-12-24T23:50:05.325Z,81.93
2022-12-24T23:52:53.026Z,80.32
2022-12-24T23:55:41.542Z,80.80
2022-12-24T23:58:27.224Z,78.95
